createdAt,value
2022-08-25T00:00:11.312Z,79.30
2022-08-25T00:02:38.421Z,79.30
2022-08-25T00:05:06.590Z,79.30
2022-08-25T00:07:34.166Z,79.30
2022-08-25T00:10:01.302Z,79.30
2022-08-25T00:12:28.439Z,79.30
2022-08-25T00:14:55.656Z,79.30
2022-08-25T00:17:22.706Z,79.30
2022-08-25T00:19:49.961Z,79.30
2022-08-25T00:22:17.042Z,79.30
2022-08-25T00:24:44.148Z,79.30
2022-08-25T00:27:12.272Z,79.30
2022-08-25T00:29:39.723Z,79.30
2022-08-25T00:32:07.138Z,79.30
2022-08-25T00:34:35.792Z,79.30
2022-08-25T00:37:04.683Z,79.30
2022-08-25T00:39:31.832Z,79.30
2022-08-25T00:41:59.660Z,79.40
2022-08-25T00:44:28.297Z,79.50
2022-08-25T00:46:56.906Z,79.40
2022-08-25T00:49:27.145Z,79.40
2022-08-25T00:51:57.257Z,79.40
2022-08-25T00:54:27.204Z,79.40
2022-08-25T00:56:54.962Z,79.40
2022-08-25T00:59:22.442Z,79.40
2022-08-25T01:01:50.539Z,79.40
2022-08-25T01:04:17.738Z,79.40
2022-08-25T01:06:45.249Z,79.40
2022-08-25T01:09:13.858Z,79.40
2022-08-25T01:11:44.553Z,79.40
2022-08-25T01:14:13.396Z,79.40
2022-08-25T01:16:41.383Z,79.40
2022-08-25T01:19:08.568Z,79.40
2022-08-25T01:21:46.392Z,79.50
2022-08-25T01:24:21.255Z,79.50
2022-08-25T01:26:48.411Z,79.50
2022-08-25T01:29:21.476Z,79.50
2022-08-25T01:31:49.130Z,79.40
2022-08-25T01:34:17.197Z,79.40
2022-08-25T01:36:44.619Z,79.50
2022-08-25T01:39:12.787Z,79.50
2022-08-25T01:41:48.822Z,79.50
2022-08-25T01:44:19.219Z,79.50
2022-08-25T01:46:46.286Z,79.50
2022-08-25T01:49:13.458Z,79.40
2022-08-25T01:52:03.848Z,79.40
2022-08-25T01:54:30.997Z,80.00
2022-08-25T01:56:58.342Z,79.40
2022-08-25T01:59:26.017Z,79.50
2022-08-25T02:01:59.644Z,79.50
2022-08-25T02:04:31.975Z,79.50
2022-08-25T02:07:00.373Z,79.50
2022-08-25T02:09:27.525Z,79.50
2022-08-25T02:11:56.221Z,79.50
2022-08-25T02:14:23.638Z,79.50
2022-08-25T02:16:51.916Z,79.50
2022-08-25T02:19:19.852Z,79.50
2022-08-25T02:21:47.203Z,79.50
2022-08-25T02:24:14.588Z,79.50
2022-08-25T02:26:41.764Z,79.60
2022-08-25T02:29:09.145Z,79.60
2022-08-25T02:31:36.825Z,79.60
2022-08-25T02:34:04.985Z,79.60
2022-08-25T02:36:32.436Z,79.60
2022-08-25T02:38:59.953Z,79.60
2022-08-25T02:41:31.081Z,79.60
2022-08-25T02:44:00.386Z,80.20
2022-08-25T02:46:27.916Z,79.60
2022-08-25T02:48:55.252Z,79.60
2022-08-25T02:51:23.399Z,79.60
2022-08-25T02:53:50.744Z,79.60
2022-08-25T02:56:18.442Z,79.60
2022-08-25T02:58:46.079Z,79.70
2022-08-25T03:01:13.889Z,79.60
2022-08-25T03:03:43.475Z,79.70
2022-08-25T03:06:12.592Z,79.60
2022-08-25T03:08:40.229Z,79.70
2022-08-25T03:11:07.482Z,79.70
2022-08-25T03:13:35.225Z,79.60
2022-08-25T03:16:03.945Z,79.70
2022-08-25T03:18:31.601Z,79.60
2022-08-25T03:20:59.261Z,79.60
2022-08-25T03:23:26.844Z,79.60
2022-08-25T03:26:13.024Z,79.60
2022-08-25T03:28:41.381Z,79.70
2022-08-25T03:31:09.081Z,79.70
2022-08-25T03:33:36.941Z,79.70
2022-08-25T03:36:05.493Z,79.70
2022-08-25T03:38:32.780Z,79.70
2022-08-25T03:40:59.940Z,79.70
2022-08-25T03:43:27.088Z,79.70
2022-08-25T03:45:54.286Z,79.70
2022-08-25T03:48:21.486Z,79.70
2022-08-25T03:50:50.482Z,79.70
2022-08-25T03:53:19.844Z,79.80
2022-08-25T03:55:47.578Z,79.80
2022-08-25T03:58:14.770Z,79.80
2022-08-25T04:00:42.239Z,79.80
2022-08-25T04:03:09.597Z,79.80
2022-08-25T04:05:36.812Z,79.80
2022-08-25T04:08:04.686Z,79.80
2022-08-25T04:10:31.930Z,79.80
2022-08-25T04:12:59.496Z,79.70
2022-08-25T04:15:30.090Z,79.70
2022-08-25T04:17:59.027Z,79.70
2022-08-25T04:20:26.618Z,79.80
2022-08-25T04:23:00.556Z,79.80
2022-08-25T04:25:27.676Z,79.80
2022-08-25T04:27:55.439Z,79.80
2022-08-25T04:30:22.728Z,79.80
2022-08-25T04:32:49.966Z,79.80
2022-08-25T04:35:17.244Z,79.80
2022-08-25T04:37:45.132Z,79.90
2022-08-25T04:40:12.520Z,79.90
2022-08-25T04:42:40.009Z,79.90
2022-08-25T04:45:07.360Z,79.90
2022-08-25T04:47:38.845Z,79.90
2022-08-25T04:50:07.201Z,79.90
2022-08-25T04:52:34.320Z,79.90
2022-08-25T04:55:01.497Z,79.90
2022-08-25T04:57:28.575Z,79.90
2022-08-25T04:59:55.735Z,80.00
2022-08-25T05:02:25.262Z,79.90
2022-08-25T05:04:52.536Z,79.90
2022-08-25T05:07:19.720Z,79.90
2022-08-25T05:09:46.862Z,79.90
2022-08-25T05:12:13.989Z,79.90
2022-08-25T05:14:41.098Z,80.00
2022-08-25T05:17:08.217Z,79.90
2022-08-25T05:19:36.181Z,79.90
2022-08-25T05:22:03.371Z,79.90
2022-08-25T05:24:30.590Z,79.90
2022-08-25T05:26:58.156Z,79.90
2022-08-25T05:29:25.330Z,80.00
2022-08-25T05:31:53.316Z,79.90
2022-08-25T05:34:20.845Z,79.90
2022-08-25T05:36:48.675Z,80.50
2022-08-25T05:39:16.158Z,80.00
2022-08-25T05:41:43.233Z,79.90
2022-08-25T05:44:10.351Z,79.90
2022-08-25T05:46:37.508Z,79.90
2022-08-25T05:49:04.658Z,79.90
2022-08-25T05:51:31.741Z,79.90
2022-08-25T05:53:58.858Z,80.00
2022-08-25T05:56:26.013Z,79.90
2022-08-25T05:58:53.839Z,80.00
2022-08-25T06:01:41.057Z,80.00
2022-08-25T06:04:10.921Z,79.90
2022-08-25T06:06:38.480Z,79.80
2022-08-25T06:09:08.394Z,79.90
2022-08-25T06:11:36.565Z,79.90
2022-08-25T06:14:04.772Z,79.90
2022-08-25T06:16:32.047Z,79.90
2022-08-25T06:18:59.251Z,79.90
2022-08-25T06:21:26.645Z,80.00
2022-08-25T06:23:53.774Z,79.90
2022-08-25T06:26:21.624Z,79.90
2022-08-25T06:28:52.536Z,80.00
2022-08-25T06:31:20.464Z,79.90
2022-08-25T06:33:47.965Z,79.90
2022-08-25T06:36:15.381Z,79.90
2022-08-25T06:38:42.505Z,79.90
2022-08-25T06:41:13.011Z,80.00
2022-08-25T06:43:47.396Z,79.90
2022-08-25T06:46:17.675Z,80.00
2022-08-25T06:48:45.060Z,80.00
2022-08-25T06:51:13.944Z,80.00
2022-08-25T06:53:42.816Z,80.00
2022-08-25T06:56:10.521Z,80.10
2022-08-25T06:58:38.275Z,80.20
2022-08-25T07:01:19.774Z,80.10
2022-08-25T07:03:48.370Z,80.20
2022-08-25T07:06:18.362Z,80.20
2022-08-25T07:08:46.624Z,80.10
2022-08-25T07:11:16.573Z,80.20
2022-08-25T07:13:45.308Z,80.20
2022-08-25T07:16:12.663Z,80.20
2022-08-25T07:18:39.753Z,80.20
2022-08-25T07:21:08.931Z,80.20
2022-08-25T07:23:36.659Z,80.30
2022-08-25T07:26:15.710Z,80.20
2022-08-25T07:28:54.596Z,80.30
2022-08-25T07:31:21.941Z,80.30
2022-08-25T07:34:16.423Z,80.30
2022-08-25T07:36:44.156Z,80.30
2022-08-25T07:39:11.530Z,80.90
2022-08-25T07:41:39.924Z,80.30
2022-08-25T07:44:08.167Z,80.30
2022-08-25T07:46:35.474Z,80.30
2022-08-25T07:49:03.328Z,80.30
2022-08-25T07:51:30.984Z,80.40
2022-08-25T07:53:58.109Z,80.50
2022-08-25T07:56:25.303Z,80.50
2022-08-25T07:58:52.402Z,80.40
2022-08-25T08:01:21.363Z,80.50
2022-08-25T08:03:50.361Z,80.50
2022-08-25T08:06:20.075Z,80.50
2022-08-25T08:08:49.631Z,80.50
2022-08-25T08:11:22.563Z,80.50
2022-08-25T08:13:51.971Z,80.50
2022-08-25T08:16:19.707Z,80.50
2022-08-25T08:18:47.478Z,80.50
2022-08-25T08:21:19.919Z,80.50
2022-08-25T08:23:48.539Z,80.60
2022-08-25T08:26:16.981Z,80.60
2022-08-25T08:28:44.179Z,80.50
2022-08-25T08:31:21.249Z,80.60
2022-08-25T08:33:49.285Z,80.60
2022-08-25T08:36:18.506Z,80.50
2022-08-25T08:38:46.379Z,80.50
2022-08-25T08:41:40.113Z,80.50
2022-08-25T08:44:24.646Z,80.60
2022-08-25T08:46:59.313Z,80.60
2022-08-25T08:49:45.369Z,80.60
2022-08-25T08:52:14.794Z,80.60
2022-08-25T08:54:42.421Z,80.60
2022-08-25T08:57:12.182Z,80.70
2022-08-25T08:59:42.134Z,80.60
2022-08-25T09:02:13.816Z,80.60
2022-08-25T09:04:44.370Z,80.60
2022-08-25T09:07:18.975Z,80.60
2022-08-25T09:09:48.075Z,80.60
2022-08-25T09:12:19.478Z,80.70
2022-08-25T09:15:12.730Z,80.60
2022-08-25T09:17:52.682Z,80.70
2022-08-25T09:20:22.020Z,80.70
2022-08-25T09:23:02.884Z,80.70
2022-08-25T09:25:52.502Z,80.70
2022-08-25T09:28:31.918Z,80.70
2022-08-25T09:31:03.815Z,80.70
2022-08-25T09:33:33.609Z,80.70
2022-08-25T09:36:04.590Z,80.70
2022-08-25T09:38:33.528Z,80.70
2022-08-25T09:41:01.761Z,80.80
2022-08-25T09:43:29.053Z,80.70
2022-08-25T09:46:01.214Z,80.70
2022-08-25T09:48:41.026Z,80.70
2022-08-25T09:51:18.177Z,80.70
2022-08-25T09:53:49.157Z,80.70
2022-08-25T09:56:18.972Z,80.70
2022-08-25T09:58:46.141Z,80.70
2022-08-25T10:01:16.274Z,80.70
2022-08-25T10:03:55.942Z,80.70
2022-08-25T10:06:23.666Z,80.70
2022-08-25T10:08:51.337Z,80.70
2022-08-25T10:11:37.994Z,80.70
2022-08-25T10:14:16.810Z,80.70
2022-08-25T10:16:46.828Z,80.70
2022-08-25T10:19:14.376Z,80.70
2022-08-25T10:21:42.772Z,80.70
2022-08-25T10:24:12.326Z,80.70
2022-08-25T10:26:45.581Z,80.80
2022-08-25T10:29:32.624Z,80.70
2022-08-25T10:32:07.039Z,80.70
2022-08-25T10:34:46.224Z,80.70
2022-08-25T10:37:27.646Z,80.60
2022-08-25T10:40:10.949Z,80.70
2022-08-25T10:43:00.686Z,80.70
2022-08-25T10:45:44.290Z,80.70
2022-08-25T10:48:24.084Z,80.70
2022-08-25T10:50:55.324Z,80.60
2022-08-25T10:53:29.099Z,80.70
2022-08-25T10:56:07.149Z,80.70
2022-08-25T10:58:43.975Z,80.70
2022-08-25T11:01:11.220Z,80.70
2022-08-25T11:03:38.371Z,80.70
2022-08-25T11:06:07.319Z,80.70
2022-08-25T11:08:47.214Z,80.60
2022-08-25T11:11:21.400Z,80.70
2022-08-25T11:14:02.813Z,80.60
2022-08-25T11:16:39.150Z,80.60
2022-08-25T11:19:18.249Z,80.60
2022-08-25T11:22:09.465Z,80.60
2022-08-25T11:24:43.158Z,80.60
2022-08-25T11:27:14.112Z,80.70
2022-08-25T11:29:42.708Z,80.70
2022-08-25T11:32:10.488Z,80.70
2022-08-25T11:34:43.675Z,80.70
2022-08-25T11:37:19.831Z,80.60
2022-08-25T11:40:11.649Z,80.60
2022-08-25T11:42:57.969Z,80.70
2022-08-25T11:45:45.866Z,80.60
2022-08-25T11:48:13.160Z,80.60
2022-08-25T11:50:56.565Z,80.60
2022-08-25T11:53:30.179Z,80.60
2022-08-25T11:56:02.392Z,80.60
2022-08-25T11:58:43.950Z,80.60
2022-08-25T12:01:30.022Z,80.60
2022-08-25T12:04:16.108Z,80.60
2022-08-25T12:07:02.446Z,80.60
2022-08-25T12:09:30.302Z,80.60
2022-08-25T12:11:58.175Z,80.50
2022-08-25T12:14:28.146Z,80.50
2022-08-25T12:16:55.729Z,80.50
2022-08-25T12:19:26.912Z,80.50
2022-08-25T12:22:15.817Z,80.50
2022-08-25T12:24:48.020Z,80.50
2022-08-25T12:27:19.371Z,80.40
2022-08-25T12:29:50.003Z,80.50
2022-08-25T12:32:17.380Z,80.40
2022-08-25T12:34:50.477Z,80.40
2022-08-25T12:37:18.894Z,80.50
2022-08-25T12:39:48.969Z,80.40
2022-08-25T12:42:39.706Z,80.50
2022-08-25T12:45:25.419Z,80.50
2022-08-25T12:47:53.521Z,80.40
2022-08-25T12:50:40.405Z,80.30
2022-08-25T12:53:11.229Z,80.20
2022-08-25T12:55:40.367Z,80.20
2022-08-25T12:58:08.284Z,80.30
2022-08-25T13:00:47.051Z,80.30
2022-08-25T13:03:26.370Z,80.30
2022-08-25T13:05:56.448Z,80.20
2022-08-25T13:08:46.957Z,80.20
2022-08-25T13:11:43.151Z,80.10
2022-08-25T13:14:34.622Z,80.10
2022-08-25T13:17:05.850Z,80.20
2022-08-25T13:19:34.566Z,80.10
2022-08-25T13:22:17.702Z,80.00
2022-08-25T13:24:47.458Z,80.00
2022-08-25T13:27:23.989Z,80.10
2022-08-25T13:29:53.310Z,80.10
2022-08-25T13:32:32.336Z,80.10
2022-08-25T13:35:32.486Z,80.20
2022-08-25T13:38:13.217Z,80.10
2022-08-25T13:40:40.784Z,80.20
2022-08-25T13:43:12.946Z,80.00
2022-08-25T13:45:44.118Z,80.00
2022-08-25T13:48:22.948Z,79.90
2022-08-25T13:51:06.145Z,79.90
2022-08-25T13:53:36.066Z,79.90
2022-08-25T13:56:04.004Z,79.90
2022-08-25T13:58:44.891Z,80.00
2022-08-25T14:01:19.942Z,79.90
2022-08-25T14:04:24.776Z,79.80
2022-08-25T14:07:06.222Z,79.80
2022-08-25T14:09:58.981Z,79.80
2022-08-25T14:12:31.374Z,79.70
2022-08-25T14:15:01.437Z,79.60
2022-08-25T14:17:39.642Z,79.50
2022-08-25T14:20:18.737Z,79.40
2022-08-25T14:22:46.092Z,79.30
2022-08-25T14:25:13.349Z,79.30
2022-08-25T14:28:03.644Z,79.20
2022-08-25T14:30:35.014Z,79.10
2022-08-25T14:33:03.305Z,79.00
2022-08-25T14:35:30.623Z,78.90
2022-08-25T14:37:58.995Z,78.90
2022-08-25T14:40:28.076Z,78.80
2022-08-25T14:42:59.553Z,78.80
2022-08-25T14:45:31.122Z,78.60
2022-08-25T14:48:03.050Z,78.50
2022-08-25T14:50:30.380Z,78.40
2022-08-25T14:52:58.268Z,78.40
2022-08-25T14:55:31.678Z,78.40
2022-08-25T14:58:00.012Z,78.30
2022-08-25T15:00:27.220Z,78.20
2022-08-25T15:02:55.280Z,78.30
2022-08-25T15:05:25.673Z,78.20
2022-08-25T15:08:12.457Z,78.20
2022-08-25T15:10:40.079Z,78.20
2022-08-25T15:13:08.826Z,78.20
2022-08-25T15:15:39.214Z,78.50
2022-08-25T15:18:21.111Z,78.60
2022-08-25T15:20:50.151Z,78.70
2022-08-25T15:23:18.631Z,78.80
2022-08-25T15:25:47.299Z,79.00
2022-08-25T15:28:17.386Z,79.00
2022-08-25T15:30:45.782Z,79.10
2022-08-25T15:33:13.742Z,79.20
2022-08-25T15:35:41.448Z,79.20
2022-08-25T15:38:08.860Z,79.20
2022-08-25T15:40:37.671Z,79.30
2022-08-25T15:43:05.671Z,79.40
2022-08-25T15:45:35.869Z,79.30
2022-08-25T15:48:04.373Z,79.30
2022-08-25T15:50:34.147Z,79.40
2022-08-25T15:53:01.538Z,79.40
2022-08-25T15:55:28.772Z,79.50
2022-08-25T15:57:55.926Z,79.40
2022-08-25T16:00:23.163Z,79.50
2022-08-25T16:02:50.353Z,79.50
2022-08-25T16:05:17.499Z,79.50
2022-08-25T16:07:46.133Z,79.60
2022-08-25T16:10:19.019Z,79.60
2022-08-25T16:12:46.244Z,79.60
2022-08-25T16:15:13.437Z,79.60
2022-08-25T16:17:43.649Z,79.60
2022-08-25T16:20:13.770Z,79.60
2022-08-25T16:22:41.498Z,79.60
2022-08-25T16:25:09.028Z,79.60
2022-08-25T16:27:38.914Z,79.60
2022-08-25T16:30:07.481Z,79.70
2022-08-25T16:32:35.599Z,79.70
2022-08-25T16:35:03.350Z,79.70
2022-08-25T16:37:32.110Z,79.70
2022-08-25T16:39:59.336Z,79.70
2022-08-25T16:42:26.857Z,79.70
2022-08-25T16:44:55.895Z,79.80
2022-08-25T16:47:25.166Z,79.70
2022-08-25T16:49:54.308Z,79.80
2022-08-25T16:52:40.702Z,79.80
2022-08-25T16:55:15.162Z,79.70
2022-08-25T16:57:46.067Z,79.70
2022-08-25T17:00:17.229Z,79.70
2022-08-25T17:02:44.410Z,79.70
2022-08-25T17:05:12.488Z,79.80
2022-08-25T17:07:39.837Z,79.70
2022-08-25T17:10:07.593Z,79.80
2022-08-25T17:12:40.530Z,79.80
2022-08-25T17:15:07.917Z,79.80
2022-08-25T17:17:36.392Z,79.80
2022-08-25T17:20:04.796Z,79.80
2022-08-25T17:22:32.230Z,79.80
2022-08-25T17:25:00.872Z,79.80
2022-08-25T17:27:28.754Z,79.80
2022-08-25T17:29:56.067Z,79.80
2022-08-25T17:32:28.954Z,79.80
2022-08-25T17:34:58.628Z,79.90
2022-08-25T17:37:26.182Z,79.90
2022-08-25T17:39:56.823Z,79.90
2022-08-25T17:42:31.677Z,79.90
2022-08-25T17:44:58.900Z,79.90
2022-08-25T17:47:27.584Z,79.90
2022-08-25T17:49:54.819Z,79.90
2022-08-25T17:52:25.045Z,79.90
2022-08-25T17:54:52.937Z,79.90
2022-08-25T17:57:20.892Z,79.90
2022-08-25T17:59:48.479Z,79.90
2022-08-25T18:02:15.789Z,79.90
2022-08-25T18:04:42.962Z,79.90
2022-08-25T18:07:10.474Z,79.90
2022-08-25T18:09:37.993Z,79.90
2022-08-25T18:12:05.209Z,79.90
2022-08-25T18:14:32.360Z,79.90
2022-08-25T18:17:01.562Z,79.80
2022-08-25T18:19:28.785Z,79.90
2022-08-25T18:21:56.380Z,79.90
2022-08-25T18:24:23.802Z,79.80
2022-08-25T18:26:51.004Z,79.90
2022-08-25T18:29:18.150Z,79.80
2022-08-25T18:31:48.342Z,79.80
2022-08-25T18:34:15.945Z,80.00
2022-08-25T18:36:43.097Z,79.80
2022-08-25T18:39:34.793Z,79.90
2022-08-25T18:42:03.093Z,79.90
2022-08-25T18:44:31.619Z,79.80
2022-08-25T18:46:58.784Z,79.80
2022-08-25T18:49:28.748Z,79.90
2022-08-25T18:51:56.084Z,79.80
2022-08-25T18:54:23.977Z,79.80
2022-08-25T18:56:54.566Z,79.80
2022-08-25T18:59:23.534Z,79.80
2022-08-25T19:01:52.723Z,79.80
2022-08-25T19:04:20.093Z,79.80
2022-08-25T19:06:47.488Z,79.90
2022-08-25T19:09:18.968Z,79.90
2022-08-25T19:11:47.444Z,79.80
2022-08-25T19:14:14.729Z,79.80
2022-08-25T19:16:42.501Z,79.80
2022-08-25T19:19:14.903Z,79.80
2022-08-25T19:21:42.360Z,79.80
2022-08-25T19:24:10.941Z,79.80
2022-08-25T19:26:38.649Z,79.90
2022-08-25T19:29:08.999Z,79.90
2022-08-25T19:31:36.966Z,79.80
2022-08-25T19:34:04.674Z,79.80
2022-08-25T19:36:31.913Z,79.80
2022-08-25T19:39:00.183Z,79.80
2022-08-25T19:41:28.297Z,79.80
2022-08-25T19:43:57.650Z,79.80
2022-08-25T19:46:32.800Z,79.80
2022-08-25T19:49:06.941Z,79.80
2022-08-25T19:51:35.924Z,79.80
2022-08-25T19:54:03.130Z,79.80
2022-08-25T19:56:30.786Z,79.80
2022-08-25T19:58:57.941Z,79.80
2022-08-25T20:01:25.249Z,79.80
2022-08-25T20:03:52.425Z,79.80
2022-08-25T20:06:19.656Z,79.80
2022-08-25T20:08:46.725Z,79.80
2022-08-25T20:11:27.399Z,79.80
2022-08-25T20:13:54.631Z,79.80
2022-08-25T20:16:23.369Z,79.80
2022-08-25T20:18:50.665Z,79.80
2022-08-25T20:21:18.012Z,79.80
2022-08-25T20:24:04.207Z,79.80
2022-08-25T20:26:31.314Z,79.80
2022-08-25T20:28:58.417Z,79.80
2022-08-25T20:31:26.007Z,79.80
2022-08-25T20:33:57.378Z,79.80
2022-08-25T20:36:27.472Z,79.80
2022-08-25T20:38:55.482Z,79.80
2022-08-25T20:41:26.312Z,79.80
2022-08-25T20:43:53.513Z,79.80
2022-08-25T20:46:21.058Z,79.80
2022-08-25T20:48:48.165Z,79.80
2022-08-25T20:51:18.722Z,79.70
2022-08-25T20:53:46.129Z,79.80
2022-08-25T20:56:14.815Z,79.80
2022-08-25T20:58:42.602Z,79.80
2022-08-25T21:01:23.172Z,79.80
2022-08-25T21:03:50.605Z,79.80
2022-08-25T21:06:18.038Z,79.80
2022-08-25T21:08:47.037Z,79.80
2022-08-25T21:11:15.911Z,79.80
2022-08-25T21:13:43.819Z,79.80
2022-08-25T21:16:11.070Z,79.80
2022-08-25T21:18:38.329Z,79.80
2022-08-25T21:21:13.995Z,79.80
2022-08-25T21:23:42.120Z,79.80
2022-08-25T21:26:16.544Z,79.80
2022-08-25T21:28:47.514Z,79.80
2022-08-25T21:31:16.168Z,79.80
2022-08-25T21:33:46.034Z,79.80
2022-08-25T21:36:17.063Z,79.80
2022-08-25T21:38:47.213Z,79.80
2022-08-25T21:41:16.339Z,79.80
2022-08-25T21:43:44.870Z,79.80
2022-08-25T21:46:16.991Z,79.80
2022-08-25T21:48:46.553Z,79.80
2022-08-25T21:51:15.543Z,79.80
2022-08-25T21:53:42.882Z,79.80
2022-08-25T21:56:11.475Z,79.80
2022-08-25T21:58:39.165Z,79.80
2022-08-25T22:01:11.600Z,80.40
2022-08-25T22:03:40.966Z,79.70
2022-08-25T22:06:08.821Z,79.70
2022-08-25T22:08:37.930Z,79.70
2022-08-25T22:11:06.486Z,79.70
2022-08-25T22:13:34.178Z,79.70
2022-08-25T22:16:01.833Z,79.80
2022-08-25T22:18:29.855Z,79.70
2022-08-25T22:20:57.872Z,79.70
2022-08-25T22:23:28.372Z,79.70
2022-08-25T22:25:56.032Z,79.80
2022-08-25T22:28:24.915Z,79.70
2022-08-25T22:30:52.833Z,79.70
2022-08-25T22:33:21.681Z,79.80
2022-08-25T22:35:51.238Z,79.70
2022-08-25T22:38:23.036Z,79.80
2022-08-25T22:40:50.160Z,79.80
2022-08-25T22:43:17.400Z,79.80
2022-08-25T22:45:44.589Z,79.80
2022-08-25T22:48:11.754Z,79.80
2022-08-25T22:50:38.896Z,79.70
2022-08-25T22:53:07.806Z,79.70
2022-08-25T22:55:41.069Z,79.70
2022-08-25T22:58:09.488Z,79.70
2022-08-25T23:00:38.404Z,79.70
2022-08-25T23:03:06.667Z,79.70
2022-08-25T23:05:35.186Z,79.80
2022-08-25T23:08:02.349Z,79.80
2022-08-25T23:10:29.565Z,79.80
2022-08-25T23:12:56.750Z,79.70
2022-08-25T23:15:24.284Z,79.80
2022-08-25T23:17:51.973Z,79.80
2022-08-25T23:20:38.273Z,79.80
2022-08-25T23:23:13.750Z,79.80
2022-08-25T23:25:40.912Z,79.80
2022-08-25T23:28:09.317Z,79.80
2022-08-25T23:30:38.050Z,79.80
2022-08-25T23:33:06.411Z,79.90
2022-08-25T23:35:33.577Z,79.80
2022-08-25T23:38:00.785Z,79.80
2022-08-25T23:40:29.230Z,79.80
2022-08-25T23:42:56.381Z,79.90
2022-08-25T23:45:23.551Z,79.90
2022-08-25T23:47:51.056Z,79.80
2022-08-25T23:50:18.221Z,79.80
2022-08-25T23:52:45.469Z,79.80
2022-08-25T23:55:13.056Z,79.80
2022-08-25T23:57:40.335Z,79.80
